UTAV

Turkmenabat Airport

Türkmenabat, Turkmenistan
TAF AMD UTAV 142100Z 1421/1518 01012KT 2000 BR BKN008 530001 TEMPO 1421/1503 VRB04KT 0300 FZFG VV002 TEMPO 1503/1506 28014KT 3000 -SHRA BKN020CB
Issued Valid From Valid To
Dec-14 @ 21:00 UTC
(39 minutes ago)
Dec-14 @ 21:00 UTC
(39 minutes ago)
Dec-15 @ 18:00 UTC
(in 20 hours)
Dec-14 @ 21:00 to Dec-15 @ 18:00
TAF AMD UTAV 142100Z 1421/1518 01012KT 2000 BR BKN008 530001
Wind Visibility Clouds Conditions Turbulence
10° at 12 knots 1,996 meters
  • Broken at 800' AGL
  • Mist
Frequent moderate clear air turbulence expected at the surface extending to 1,000' AGL
Temporary Dec-14 @ 21:00 to Dec-15 @ 03:00
TEMPO 1421/1503 VRB04KT 0300 FZFG VV002
Wind Visibility Clouds Conditions
Variable at 4 knots 306 meters
  • Vertical visibility at 200' AGL
  • Freezing
  • Fog
Temporary Dec-15 @ 03:00 to Dec-15 @ 06:00
TEMPO 1503/1506 28014KT 3000 -SHRA BKN020CB
Wind Visibility Clouds Conditions
280° at 14 knots 2,993 meters
  • Broken at 2,000' AGL
  • Light Rain
TAF AMD UTAV 142100Z 1421/1518 01012KT 2000 BR BKN008 530001 TEMPO 1421/1503 VRB04KT 0300 FZFG VV002 TEMPO 1503/1506 28014KT 3000 -SHRA BKN020CB
Issued Dec-14 @ 21:00 UTC
(39 minutes ago)
Valid From Dec-14 @ 21:00 UTC
(39 minutes ago)
Valid To Dec-15 @ 18:00 UTC
(in 20 hours)
Dec-14 @ 21:00 - Dec-15 @ 18:00
Wind Visibility
10° at 12 knots 1,996 meters
Clouds
  • Broken at 800' AGL
Conditions
  • Mist
Temporary Dec-14 @ 21:00 - Dec-15 @ 03:00
Wind Visibility
Variable at 4 knots 306 meters
Clouds
  • Vertical visibility at 200' AGL
Conditions
  • Freezing
  • Fog
Temporary Dec-15 @ 03:00 - Dec-15 @ 06:00
Wind Visibility
280° at 14 knots 2,993 meters
Clouds
  • Broken at 2,000' AGL
Conditions
  • Light Rain